sensor_id;sensor_type;location;lat;lon;timestamp;pressure;altitude;pressure_sealevel;temperature;humidity
63321;BME280;49449;48.800;9.534;2023-02-14T00:00:04;100453.06;;;1.89;40.04
63321;BME280;49449;48.800;9.534;2023-02-14T00:02:32;100453.78;;;1.91;39.27
63321;BME280;49449;48.800;9.534;2023-02-14T00:05:00;100456.38;;;1.91;39.75
63321;BME280;49449;48.800;9.534;2023-02-14T00:07:29;100451.53;;;1.87;39.34
63321;BME280;49449;48.800;9.534;2023-02-14T00:09:57;100451.41;;;1.88;38.64
63321;BME280;49449;48.800;9.534;2023-02-14T00:12:25;100453.78;;;1.80;39.02
63321;BME280;49449;48.800;9.534;2023-02-14T00:14:54;100454.19;;;1.76;39.12
63321;BME280;49449;48.800;9.534;2023-02-14T00:17:39;100459.63;;;1.72;40.01
63321;BME280;49449;48.800;9.534;2023-02-14T00:20:08;100462.94;;;1.75;39.32
63321;BME280;49449;48.800;9.534;2023-02-14T00:22:35;100454.19;;;1.76;39.18
63321;BME280;49449;48.800;9.534;2023-02-14T00:25:04;100449.66;;;1.78;39.40
63321;BME280;49449;48.800;9.534;2023-02-14T00:27:32;100450.16;;;1.71;38.92
63321;BME280;49449;48.800;9.534;2023-02-14T00:30:01;100444.47;;;1.66;39.54
63321;BME280;49449;48.800;9.534;2023-02-14T00:32:29;100453.72;;;1.70;39.93
63321;BME280;49449;48.800;9.534;2023-02-14T00:34:57;100450.41;;;1.68;39.67
63321;BME280;49449;48.800;9.534;2023-02-14T00:37:25;100444.63;;;1.65;40.04
63321;BME280;49449;48.800;9.534;2023-02-14T00:39:53;100450.78;;;1.64;40.43
63321;BME280;49449;48.800;9.534;2023-02-14T00:42:21;100449.09;;;1.63;39.95
63321;BME280;49449;48.800;9.534;2023-02-14T00:44:49;100455.97;;;1.64;40.92
63321;BME280;49449;48.800;9.534;2023-02-14T00:47:18;100446.50;;;1.63;40.57
63321;BME280;49449;48.800;9.534;2023-02-14T00:49:45;100448.41;;;1.61;40.11
63321;BME280;49449;48.800;9.534;2023-02-14T00:52:13;100448.41;;;1.61;40.67
63321;BME280;49449;48.800;9.534;2023-02-14T00:54:41;100444.97;;;1.60;39.62
63321;BME280;49449;48.800;9.534;2023-02-14T00:57:09;100449.38;;;1.60;40.02
63321;BME280;49449;48.800;9.534;2023-02-14T00:59:37;100436.47;;;1.58;40.10
63321;BME280;49449;48.800;9.534;2023-02-14T01:02:04;100448.63;;;1.58;40.08
63321;BME280;49449;48.800;9.534;2023-02-14T01:04:34;100446.19;;;1.56;40.45
63321;BME280;49449;48.800;9.534;2023-02-14T01:07:01;100445.34;;;1.56;39.75
63321;BME280;49449;48.800;9.534;2023-02-14T01:09:29;100451.75;;;1.51;40.03
63321;BME280;49449;48.800;9.534;2023-02-14T01:11:57;100448.19;;;1.52;39.85
63321;BME280;49449;48.800;9.534;2023-02-14T01:14:25;100449.25;;;1.50;40.03
63321;BME280;49449;48.800;9.534;2023-02-14T01:16:52;100448.09;;;1.43;39.30
63321;BME280;49449;48.800;9.534;2023-02-14T01:19:20;100440.47;;;1.40;39.92
63321;BME280;49449;48.800;9.534;2023-02-14T01:21:49;100447.34;;;1.41;39.79
63321;BME280;49449;48.800;9.534;2023-02-14T01:24:17;100445.69;;;1.40;40.00
63321;BME280;49449;48.800;9.534;2023-02-14T01:26:44;100444.16;;;1.37;40.00
63321;BME280;49449;48.800;9.534;2023-02-14T01:29:12;100455.16;;;1.41;39.01
63321;BME280;49449;48.800;9.534;2023-02-14T01:31:40;100446.66;;;1.39;39.65
63321;BME280;49449;48.800;9.534;2023-02-14T01:34:08;100451.00;;;1.38;39.23
63321;BME280;49449;48.800;9.534;2023-02-14T01:36:37;100443.59;;;1.33;39.54
63321;BME280;49449;48.800;9.534;2023-02-14T01:39:09;100449.50;;;1.24;39.10
63321;BME280;49449;48.800;9.534;2023-02-14T01:41:39;100445.25;;;1.23;38.42
63321;BME280;49449;48.800;9.534;2023-02-14T01:47:09;100443.59;;;1.11;39.36
63321;BME280;49449;48.800;9.534;2023-02-14T01:49:40;100448.09;;;1.09;39.47
63321;BME280;49449;48.800;9.534;2023-02-14T01:52:13;100441.00;;;1.11;39.80
63321;BME280;49449;48.800;9.534;2023-02-14T01:54:47;100443.38;;;1.14;38.97
63321;BME280;49449;48.800;9.534;2023-02-14T01:57:19;100441.81;;;1.11;39.06
63321;BME280;49449;48.800;9.534;2023-02-14T01:59:51;100437.69;;;1.09;39.69
63321;BME280;49449;48.800;9.534;2023-02-14T02:02:20;100438.72;;;1.06;39.35
63321;BME280;49449;48.800;9.534;2023-02-14T02:04:52;100435.81;;;1.00;39.38
63321;BME280;49449;48.800;9.534;2023-02-14T02:07:23;100434.94;;;0.99;39.63
63321;BME280;49449;48.800;9.534;2023-02-14T02:09:56;100433.31;;;0.98;39.54
63321;BME280;49449;48.800;9.534;2023-02-14T02:12:25;100431.53;;;0.98;39.46
63321;BME280;49449;48.800;9.534;2023-02-14T02:14:56;100437.06;;;0.94;44.60
63321;BME280;49449;48.800;9.534;2023-02-14T02:17:33;100436.38;;;0.92;42.54
63321;BME280;49449;48.800;9.534;2023-02-14T02:20:35;100436.50;;;0.90;40.87
63321;BME280;49449;48.800;9.534;2023-02-14T02:23:42;100434.25;;;0.86;40.02
63321;BME280;49449;48.800;9.534;2023-02-14T02:26:38;100436.84;;;0.86;39.80
63321;BME280;49449;48.800;9.534;2023-02-14T02:32:50;100437.69;;;0.86;39.61
63321;BME280;49449;48.800;9.534;2023-02-14T02:35:35;100438.75;;;0.84;39.37
63321;BME280;49449;48.800;9.534;2023-02-14T02:38:13;100432.47;;;0.75;39.28
63321;BME280;49449;48.800;9.534;2023-02-14T02:40:46;100432.34;;;0.65;38.76
63321;BME280;49449;48.800;9.534;2023-02-14T02:43:28;100432.44;;;0.64;39.87
63321;BME280;49449;48.800;9.534;2023-02-14T02:46:01;100430.69;;;0.64;39.30
63321;BME280;49449;48.800;9.534;2023-02-14T02:48:56;100435.06;;;0.64;39.82
63321;BME280;49449;48.800;9.534;2023-02-14T02:51:33;100431.75;;;0.73;39.47
63321;BME280;49449;48.800;9.534;2023-02-14T02:54:28;100433.75;;;0.69;39.66
63321;BME280;49449;48.800;9.534;2023-02-14T02:57:00;100424.53;;;0.65;39.18
63321;BME280;49449;48.800;9.534;2023-02-14T02:59:29;100429.63;;;0.67;40.42
63321;BME280;49449;48.800;9.534;2023-02-14T03:02:04;100427.13;;;0.65;39.00
63321;BME280;49449;48.800;9.534;2023-02-14T03:04:35;100423.13;;;0.61;39.07
63321;BME280;49449;48.800;9.534;2023-02-14T03:07:30;100421.94;;;0.54;38.82
63321;BME280;49449;48.800;9.534;2023-02-14T03:10:07;100429.72;;;0.54;39.58
63321;BME280;49449;48.800;9.534;2023-02-14T03:13:09;100426.16;;;0.55;39.27
63321;BME280;49449;48.800;9.534;2023-02-14T03:15:51;100429.38;;;0.58;39.50
63321;BME280;49449;48.800;9.534;2023-02-14T03:18:31;100435.53;;;0.57;39.01
63321;BME280;49449;48.800;9.534;2023-02-14T03:21:27;100420.16;;;0.54;39.76
63321;BME280;49449;48.800;9.534;2023-02-14T03:24:04;100425.25;;;0.56;39.26
63321;BME280;49449;48.800;9.534;2023-02-14T03:26:37;100417.66;;;0.53;39.52
63321;BME280;49449;48.800;9.534;2023-02-14T03:29:11;100418.63;;;0.52;39.10
63321;BME280;49449;48.800;9.534;2023-02-14T03:31:48;100425.69;;;0.50;39.70
63321;BME280;49449;48.800;9.534;2023-02-14T03:34:22;100419.66;;;0.49;38.76
63321;BME280;49449;48.800;9.534;2023-02-14T03:36:57;100434.56;;;0.47;39.39
63321;BME280;49449;48.800;9.534;2023-02-14T03:39:32;100430.19;;;0.48;39.56
63321;BME280;49449;48.800;9.534;2023-02-14T03:42:05;100428.66;;;0.45;39.00
63321;BME280;49449;48.800;9.534;2023-02-14T03:44:35;100424.50;;;0.43;38.55
63321;BME280;49449;48.800;9.534;2023-02-14T03:47:05;100428.50;;;0.35;38.97
63321;BME280;49449;48.800;9.534;2023-02-14T03:49:38;100430.16;;;0.36;39.02
63321;BME280;49449;48.800;9.534;2023-02-14T03:52:08;100431.69;;;0.39;38.99
63321;BME280;49449;48.800;9.534;2023-02-14T03:54:38;100422.97;;;0.40;39.13
63321;BME280;49449;48.800;9.534;2023-02-14T03:57:12;100418.59;;;0.40;38.97
63321;BME280;49449;48.800;9.534;2023-02-14T03:59:42;100420.47;;;0.38;39.73
63321;BME280;49449;48.800;9.534;2023-02-14T04:02:12;100419.53;;;0.39;39.27
63321;BME280;49449;48.800;9.534;2023-02-14T04:04:43;100427.34;;;0.39;39.12
63321;BME280;49449;48.800;9.534;2023-02-14T04:07:14;100417.28;;;0.35;39.41
63321;BME280;49449;48.800;9.534;2023-02-14T04:09:43;100417.97;;;0.37;39.17
63321;BME280;49449;48.800;9.534;2023-02-14T04:12:12;100413.13;;;0.32;38.90
63321;BME280;49449;48.800;9.534;2023-02-14T04:14:40;100416.78;;;0.30;39.78
63321;BME280;49449;48.800;9.534;2023-02-14T04:17:08;100411.59;;;0.30;39.11
63321;BME280;49449;48.800;9.534;2023-02-14T04:19:53;100415.84;;;0.31;39.50
63321;BME280;49449;48.800;9.534;2023-02-14T04:22:21;100408.66;;;0.34;39.04
63321;BME280;49449;48.800;9.534;2023-02-14T04:24:50;100412.28;;;0.32;39.57
63321;BME280;49449;48.800;9.534;2023-02-14T04:27:17;100408.06;;;0.31;39.98
63321;BME280;49449;48.800;9.534;2023-02-14T04:29:47;100407.09;;;0.32;39.89
63321;BME280;49449;48.800;9.534;2023-02-14T04:32:18;100411.00;;;0.37;39.29
63321;BME280;49449;48.800;9.534;2023-02-14T04:34:46;100411.50;;;0.43;39.66
63321;BME280;49449;48.800;9.534;2023-02-14T04:37:17;100399.66;;;0.38;39.44
63321;BME280;49449;48.800;9.534;2023-02-14T04:39:45;100406.16;;;0.33;39.85
63321;BME280;49449;48.800;9.534;2023-02-14T04:42:14;100406.28;;;0.31;39.63
63321;BME280;49449;48.800;9.534;2023-02-14T04:44:42;100402.84;;;0.31;39.57
63321;BME280;49449;48.800;9.534;2023-02-14T04:47:10;100398.91;;;0.25;38.91
63321;BME280;49449;48.800;9.534;2023-02-14T04:49:38;100401.38;;;0.15;39.45
63321;BME280;49449;48.800;9.534;2023-02-14T04:52:06;100391.69;;;0.17;39.41
63321;BME280;49449;48.800;9.534;2023-02-14T04:54:33;100392.63;;;0.16;39.22
63321;BME280;49449;48.800;9.534;2023-02-14T04:57:01;100395.31;;;0.03;39.46
63321;BME280;49449;48.800;9.534;2023-02-14T04:59:30;100403.13;;;0.03;39.48
63321;BME280;49449;48.800;9.534;2023-02-14T05:01:58;100404.09;;;0.02;39.77
63321;BME280;49449;48.800;9.534;2023-02-14T05:04:26;100404.09;;;0.02;38.89
63321;BME280;49449;48.800;9.534;2023-02-14T05:06:53;100395.78;;;-0.03;39.37
63321;BME280;49449;48.800;9.534;2023-02-14T05:09:21;100397.91;;;0.03;39.57
63321;BME280;49449;48.800;9.534;2023-02-14T05:11:49;100400.53;;;0.03;39.34
63321;BME280;49449;48.800;9.534;2023-02-14T05:14:17;100399.81;;;0.01;39.01
63321;BME280;49449;48.800;9.534;2023-02-14T05:16:46;100399.00;;;0.01;39.10
63321;BME280;49449;48.800;9.534;2023-02-14T05:19:14;100398.03;;;0.02;39.37
63321;BME280;49449;48.800;9.534;2023-02-14T05:21:41;100403.94;;;0.04;39.03
63321;BME280;49449;48.800;9.534;2023-02-14T05:24:09;100400.91;;;0.10;38.68
63321;BME280;49449;48.800;9.534;2023-02-14T05:26:37;100403.38;;;0.12;39.27
63321;BME280;49449;48.800;9.534;2023-02-14T05:29:06;100396.31;;;0.14;38.92
63321;BME280;49449;48.800;9.534;2023-02-14T05:31:34;100392.19;;;0.11;38.92
63321;BME280;49449;48.800;9.534;2023-02-14T05:34:03;100397.38;;;0.11;39.21
63321;BME280;49449;48.800;9.534;2023-02-14T05:36:31;100395.47;;;0.13;38.37
63321;BME280;49449;48.800;9.534;2023-02-14T05:38:59;100397.22;;;0.13;38.98
63321;BME280;49449;48.800;9.534;2023-02-14T05:41:27;100393.22;;;0.09;38.99
63321;BME280;49449;48.800;9.534;2023-02-14T05:43:54;100392.63;;;0.05;38.72
63321;BME280;49449;48.800;9.534;2023-02-14T05:46:22;100393.09;;;0.10;39.29
63321;BME280;49449;48.800;9.534;2023-02-14T05:48:50;100392.50;;;0.07;38.74
63321;BME280;49449;48.800;9.534;2023-02-14T05:51:19;100386.38;;;0.08;38.60
63321;BME280;49449;48.800;9.534;2023-02-14T05:53:47;100395.00;;;0.08;39.03
63321;BME280;49449;48.800;9.534;2023-02-14T05:56:15;100393.44;;;0.06;38.54
63321;BME280;49449;48.800;9.534;2023-02-14T05:58:43;100389.19;;;0.05;39.29
63321;BME280;49449;48.800;9.534;2023-02-14T06:01:11;100399.38;;;0.08;38.92
63321;BME280;49449;48.800;9.534;2023-02-14T06:03:38;100398.41;;;0.09;38.66
63321;BME280;49449;48.800;9.534;2023-02-14T06:06:06;100400.31;;;0.07;38.89
63321;BME280;49449;48.800;9.534;2023-02-14T06:08:35;100399.38;;;0.08;38.87
63321;BME280;49449;48.800;9.534;2023-02-14T06:11:03;100402.09;;;0.06;38.52
63321;BME280;49449;48.800;9.534;2023-02-14T06:13:31;100408.31;;;0.03;39.09
63321;BME280;49449;48.800;9.534;2023-02-14T06:15:59;100410.81;;;0.05;38.68
63321;BME280;49449;48.800;9.534;2023-02-14T06:18:29;100412.00;;;0.01;38.47
63321;BME280;49449;48.800;9.534;2023-02-14T06:20:56;100414.91;;;-0.04;37.77
63321;BME280;49449;48.800;9.534;2023-02-14T06:23:25;100417.22;;;-0.12;38.37
63321;BME280;49449;48.800;9.534;2023-02-14T06:25:54;100418.50;;;-0.18;38.15
63321;BME280;49449;48.800;9.534;2023-02-14T06:28:22;100422.69;;;-0.15;38.46
63321;BME280;49449;48.800;9.534;2023-02-14T06:30:50;100423.16;;;-0.10;38.82
63321;BME280;49449;48.800;9.534;2023-02-14T06:33:18;100421.88;;;-0.04;39.28
63321;BME280;49449;48.800;9.534;2023-02-14T06:35:45;100421.06;;;-0.05;38.57
63321;BME280;49449;48.800;9.534;2023-02-14T06:38:13;100421.28;;;-0.08;38.83
63321;BME280;49449;48.800;9.534;2023-02-14T06:40:41;100427.19;;;-0.06;39.19
63321;BME280;49449;48.800;9.534;2023-02-14T06:43:10;100420.94;;;-0.03;39.32
63321;BME280;49449;48.800;9.534;2023-02-14T06:45:38;100428.63;;;-0.02;39.03
63321;BME280;49449;48.800;9.534;2023-02-14T06:48:09;100421.53;;;0.00;38.93
63321;BME280;49449;48.800;9.534;2023-02-14T06:50:36;100423.91;;;0.03;38.96
63321;BME280;49449;48.800;9.534;2023-02-14T06:53:04;100429.72;;;0.07;39.68
63321;BME280;49449;48.800;9.534;2023-02-14T06:55:32;100435.03;;;0.06;39.99
63321;BME280;49449;48.800;9.534;2023-02-14T06:58:00;100431.38;;;0.08;40.33
63321;BME280;49449;48.800;9.534;2023-02-14T07:00:29;100434.47;;;0.13;40.38
63321;BME280;49449;48.800;9.534;2023-02-14T07:02:57;100433.28;;;0.17;39.63
63321;BME280;49449;48.800;9.534;2023-02-14T07:05:25;100433.19;;;0.19;40.14
63321;BME280;49449;48.800;9.534;2023-02-14T07:07:53;100425.16;;;0.22;39.76
63321;BME280;49449;48.800;9.534;2023-02-14T07:10:20;100429.19;;;0.26;39.50
63321;BME280;49449;48.800;9.534;2023-02-14T07:12:48;100430.00;;;0.15;39.18
63321;BME280;49449;48.800;9.534;2023-02-14T07:15:16;100429.78;;;0.18;39.50
63321;BME280;49449;48.800;9.534;2023-02-14T07:17:45;100427.66;;;0.24;39.91
63321;BME280;49449;48.800;9.534;2023-02-14T07:20:13;100422.81;;;0.30;39.41
63321;BME280;49449;48.800;9.534;2023-02-14T07:22:41;100422.84;;;0.42;40.09
63321;BME280;49449;48.800;9.534;2023-02-14T07:25:09;100422.41;;;0.59;39.93
63321;BME280;49449;48.800;9.534;2023-02-14T07:27:37;100416.50;;;0.68;39.83
63321;BME280;49449;48.800;9.534;2023-02-14T07:30:06;100418.66;;;0.86;39.62
63321;BME280;49449;48.800;9.534;2023-02-14T07:32:35;100419.91;;;1.03;39.26
63321;BME280;49449;48.800;9.534;2023-02-14T07:35:05;100416.00;;;1.20;39.40
63321;BME280;49449;48.800;9.534;2023-02-14T07:37:34;100419.06;;;1.36;39.38
63321;BME280;49449;48.800;9.534;2023-02-14T07:40:03;100418.81;;;1.50;38.70
63321;BME280;49449;48.800;9.534;2023-02-14T07:42:34;100415.00;;;1.66;38.19
63321;BME280;49449;48.800;9.534;2023-02-14T07:45:02;100414.13;;;1.77;38.21
63321;BME280;49449;48.800;9.534;2023-02-14T07:47:46;100410.19;;;1.82;37.20
63321;BME280;49449;48.800;9.534;2023-02-14T07:50:16;100414.56;;;1.93;37.43
63321;BME280;49449;48.800;9.534;2023-02-14T07:52:45;100415.44;;;2.03;36.97
63321;BME280;49449;48.800;9.534;2023-02-14T07:55:13;100416.84;;;2.07;37.24
63321;BME280;49449;48.800;9.534;2023-02-14T07:57:41;100413.16;;;2.10;37.37
63321;BME280;49449;48.800;9.534;2023-02-14T08:00:10;100413.84;;;2.12;37.68
63321;BME280;49449;48.800;9.534;2023-02-14T08:02:39;100418.00;;;2.15;37.78
63321;BME280;49449;48.800;9.534;2023-02-14T08:05:07;100413.47;;;2.17;37.59
63321;BME280;49449;48.800;9.534;2023-02-14T08:07:36;100408.72;;;2.22;37.29
63321;BME280;49449;48.800;9.534;2023-02-14T08:10:05;100407.63;;;2.24;38.29
63321;BME280;49449;48.800;9.534;2023-02-14T08:12:33;100410.78;;;2.28;38.48
63321;BME280;49449;48.800;9.534;2023-02-14T08:15:18;100414.50;;;2.25;38.18
63321;BME280;49449;48.800;9.534;2023-02-14T08:18:04;100419.72;;;2.25;38.25
63321;BME280;49449;48.800;9.534;2023-02-14T08:20:32;100420.84;;;2.33;39.02
63321;BME280;49449;48.800;9.534;2023-02-14T08:23:01;100416.53;;;2.43;38.47
63321;BME280;49449;48.800;9.534;2023-02-14T08:25:29;100417.59;;;2.61;38.11
63321;BME280;49449;48.800;9.534;2023-02-14T08:27:57;100414.50;;;3.08;36.85
63321;BME280;49449;48.800;9.534;2023-02-14T08:30:24;100416.19;;;3.29;36.59
63321;BME280;49449;48.800;9.534;2023-02-14T08:32:52;100415.09;;;5.05;34.29
63321;BME280;49449;48.800;9.534;2023-02-14T08:35:20;100408.75;;;6.86;31.49
63321;BME280;49449;48.800;9.534;2023-02-14T08:37:49;100400.44;;;8.15;29.47
63321;BME280;49449;48.800;9.534;2023-02-14T08:40:19;100398.34;;;9.23;28.27
63321;BME280;49449;48.800;9.534;2023-02-14T08:42:47;100392.81;;;10.10;27.41
63321;BME280;49449;48.800;9.534;2023-02-14T08:45:15;100395.75;;;10.75;26.18
63321;BME280;49449;48.800;9.534;2023-02-14T08:47:42;100395.69;;;11.34;26.03
63321;BME280;49449;48.800;9.534;2023-02-14T08:50:13;100380.63;;;11.78;24.67
63321;BME280;49449;48.800;9.534;2023-02-14T08:52:41;100382.28;;;12.29;24.21
63321;BME280;49449;48.800;9.534;2023-02-14T08:55:11;100371.19;;;12.82;23.63
63321;BME280;49449;48.800;9.534;2023-02-14T08:57:41;100375.38;;;13.18;23.34
63321;BME280;49449;48.800;9.534;2023-02-14T09:00:12;100374.97;;;13.27;23.03
63321;BME280;49449;48.800;9.534;2023-02-14T09:02:40;100370.34;;;13.56;22.70
63321;BME280;49449;48.800;9.534;2023-02-14T09:05:08;100367.94;;;13.61;22.72
63321;BME280;49449;48.800;9.534;2023-02-14T09:07:36;100362.19;;;13.58;22.56
63321;BME280;49449;48.800;9.534;2023-02-14T09:10:05;100363.16;;;13.43;23.25
63321;BME280;49449;48.800;9.534;2023-02-14T09:12:33;100355.16;;;12.68;23.95
63321;BME280;49449;48.800;9.534;2023-02-14T09:15:03;100359.69;;;11.62;25.12
63321;BME280;49449;48.800;9.534;2023-02-14T09:17:30;100366.41;;;10.70;27.05
63321;BME280;49449;48.800;9.534;2023-02-14T09:19:59;100354.44;;;9.99;28.05
63321;BME280;49449;48.800;9.534;2023-02-14T09:22:27;100363.84;;;9.56;28.11
63321;BME280;49449;48.800;9.534;2023-02-14T09:24:55;100355.97;;;9.24;29.20
63321;BME280;49449;48.800;9.534;2023-02-14T09:27:23;100358.56;;;9.01;29.79
63321;BME280;49449;48.800;9.534;2023-02-14T09:29:50;100357.00;;;8.84;30.14
63321;BME280;49449;48.800;9.534;2023-02-14T09:32:20;100359.50;;;8.77;30.28
63321;BME280;49449;48.800;9.534;2023-02-14T09:34:47;100360.66;;;8.66;30.19
63321;BME280;49449;48.800;9.534;2023-02-14T09:37:15;100347.00;;;8.63;30.53
63321;BME280;49449;48.800;9.534;2023-02-14T09:39:43;100346.19;;;8.62;30.55
63321;BME280;49449;48.800;9.534;2023-02-14T09:42:32;100357.72;;;8.61;30.73
63321;BME280;49449;48.800;9.534;2023-02-14T09:45:07;100343.56;;;8.62;30.64
63321;BME280;49449;48.800;9.534;2023-02-14T09:47:42;100343.03;;;8.67;30.65
63321;BME280;49449;48.800;9.534;2023-02-14T09:50:16;100343.50;;;8.70;30.79
63321;BME280;49449;48.800;9.534;2023-02-14T09:52:48;100345.34;;;8.78;30.92
63321;BME280;49449;48.800;9.534;2023-02-14T09:55:18;100343.66;;;8.85;31.07
63321;BME280;49449;48.800;9.534;2023-02-14T09:57:59;100338.72;;;8.82;30.72
63321;BME280;49449;48.800;9.534;2023-02-14T10:00:34;100338.34;;;8.94;30.95
63321;BME280;49449;48.800;9.534;2023-02-14T10:03:17;100334.84;;;9.01;31.16
63321;BME280;49449;48.800;9.534;2023-02-14T10:05:54;100333.81;;;9.10;30.96
63321;BME280;49449;48.800;9.534;2023-02-14T10:08:35;100330.59;;;9.23;30.78
63321;BME280;49449;48.800;9.534;2023-02-14T10:11:10;100330.53;;;9.32;30.05
63321;BME280;49449;48.800;9.534;2023-02-14T10:13:42;100325.91;;;9.34;30.63
63321;BME280;49449;48.800;9.534;2023-02-14T10:16:18;100326.31;;;9.45;30.88
63321;BME280;49449;48.800;9.534;2023-02-14T10:18:51;100327.25;;;9.53;30.53
63321;BME280;49449;48.800;9.534;2023-02-14T10:21:23;100328.25;;;9.52;30.21
63321;BME280;49449;48.800;9.534;2023-02-14T10:23:57;100321.91;;;9.61;30.15
63321;BME280;49449;48.800;9.534;2023-02-14T10:26:34;100316.34;;;9.56;30.21
63321;BME280;49449;48.800;9.534;2023-02-14T10:29:02;100318.56;;;9.67;31.15
63321;BME280;49449;48.800;9.534;2023-02-14T10:31:37;100312.41;;;9.75;30.38
63321;BME280;49449;48.800;9.534;2023-02-14T10:34:14;100318.09;;;9.86;30.47
63321;BME280;49449;48.800;9.534;2023-02-14T10:36:55;100310.72;;;9.97;30.57
63321;BME280;49449;48.800;9.534;2023-02-14T10:39:39;100308.75;;;10.14;29.75
63321;BME280;49449;48.800;9.534;2023-02-14T10:42:18;100297.53;;;10.27;29.95
63321;BME280;49449;48.800;9.534;2023-02-14T10:44:53;100301.91;;;10.34;30.13
63321;BME280;49449;48.800;9.534;2023-02-14T10:47:34;100294.97;;;10.48;29.88
63321;BME280;49449;48.800;9.534;2023-02-14T10:50:15;100285.88;;;10.51;29.75
63321;BME280;49449;48.800;9.534;2023-02-14T10:52:49;100291.50;;;10.62;29.29
63321;BME280;49449;48.800;9.534;2023-02-14T10:55:37;100278.53;;;10.68;29.60
63321;BME280;49449;48.800;9.534;2023-02-14T10:58:09;100266.84;;;10.77;29.44
63321;BME280;49449;48.800;9.534;2023-02-14T11:00:49;100265.94;;;10.85;29.52
63321;BME280;49449;48.800;9.534;2023-02-14T11:03:19;100263.84;;;10.95;29.57
63321;BME280;49449;48.800;9.534;2023-02-14T11:05:49;100261.06;;;11.03;29.36
63321;BME280;49449;48.800;9.534;2023-02-14T11:08:23;100259.91;;;11.12;29.26
63321;BME280;49449;48.800;9.534;2023-02-14T11:10:51;100263.50;;;11.26;29.43
63321;BME280;49449;48.800;9.534;2023-02-14T11:13:32;100252.97;;;11.33;29.14
63321;BME280;49449;48.800;9.534;2023-02-14T11:16:03;100246.34;;;11.44;28.82
63321;BME280;49449;48.800;9.534;2023-02-14T11:18:32;100249.25;;;11.49;28.83
63321;BME280;49449;48.800;9.534;2023-02-14T11:21:05;100237.25;;;11.53;28.75
63321;BME280;49449;48.800;9.534;2023-02-14T11:23:36;100238.72;;;11.55;28.66
63321;BME280;49449;48.800;9.534;2023-02-14T11:26:09;100233.91;;;11.66;28.51
63321;BME280;49449;48.800;9.534;2023-02-14T11:28:45;100229.41;;;11.66;28.38
63321;BME280;49449;48.800;9.534;2023-02-14T11:31:24;100236.78;;;11.71;28.71
63321;BME280;49449;48.800;9.534;2023-02-14T11:33:52;100235.47;;;11.82;28.72
63321;BME280;49449;48.800;9.534;2023-02-14T11:36:21;100229.78;;;11.85;28.52
63321;BME280;49449;48.800;9.534;2023-02-14T11:38:55;100222.47;;;11.87;28.44
63321;BME280;49449;48.800;9.534;2023-02-14T11:41:24;100219.56;;;11.82;28.20
63321;BME280;49449;48.800;9.534;2023-02-14T11:44:10;100210.41;;;11.84;28.61
63321;BME280;49449;48.800;9.534;2023-02-14T11:46:38;100208.63;;;11.91;28.52
63321;BME280;49449;48.800;9.534;2023-02-14T11:49:27;100205.16;;;11.91;28.84
63321;BME280;49449;48.800;9.534;2023-02-14T11:51:58;100202.66;;;11.83;28.83
63321;BME280;49449;48.800;9.534;2023-02-14T11:54:33;100196.81;;;11.94;28.66
63321;BME280;49449;48.800;9.534;2023-02-14T11:57:03;100192.38;;;12.01;29.06
63321;BME280;49449;48.800;9.534;2023-02-14T11:59:36;100191.81;;;12.12;28.72
63321;BME280;49449;48.800;9.534;2023-02-14T12:02:23;100180.63;;;12.17;28.45
63321;BME280;49449;48.800;9.534;2023-02-14T12:04:54;100178.63;;;12.26;28.34
63321;BME280;49449;48.800;9.534;2023-02-14T12:07:28;100178.00;;;12.30;28.38
63321;BME280;49449;48.800;9.534;2023-02-14T12:12:53;100168.47;;;12.43;28.10
63321;BME280;49449;48.800;9.534;2023-02-14T12:15:24;100165.81;;;12.43;27.95
63321;BME280;49449;48.800;9.534;2023-02-14T12:17:58;100171.56;;;12.53;27.95
63321;BME280;49449;48.800;9.534;2023-02-14T12:20:36;100162.63;;;12.61;28.08
63321;BME280;49449;48.800;9.534;2023-02-14T12:23:12;100157.91;;;12.63;27.81
63321;BME280;49449;48.800;9.534;2023-02-14T12:25:45;100153.63;;;12.68;28.10
63321;BME280;49449;48.800;9.534;2023-02-14T12:28:20;100152.66;;;12.76;27.86
63321;BME280;49449;48.800;9.534;2023-02-14T12:30:49;100146.53;;;12.76;27.31
63321;BME280;49449;48.800;9.534;2023-02-14T12:33:18;100144.09;;;12.74;27.39
63321;BME280;49449;48.800;9.534;2023-02-14T12:35:53;100137.34;;;12.72;27.61
63321;BME280;49449;48.800;9.534;2023-02-14T12:38:37;100137.34;;;12.78;27.74
63321;BME280;49449;48.800;9.534;2023-02-14T12:41:24;100134.50;;;12.80;28.90
63321;BME280;49449;48.800;9.534;2023-02-14T12:43:55;100130.41;;;12.91;28.87
63321;BME280;49449;48.800;9.534;2023-02-14T12:46:40;100122.88;;;13.01;28.82
63321;BME280;49449;48.800;9.534;2023-02-14T12:49:28;100119.81;;;13.04;28.30
63321;BME280;49449;48.800;9.534;2023-02-14T12:52:07;100119.81;;;13.04;27.33
63321;BME280;49449;48.800;9.534;2023-02-14T12:54:48;100114.91;;;13.07;27.80
63321;BME280;49449;48.800;9.534;2023-02-14T12:57:29;100111.44;;;13.14;27.49
63321;BME280;49449;48.800;9.534;2023-02-14T13:00:10;100110.41;;;13.21;28.15
63321;BME280;49449;48.800;9.534;2023-02-14T13:02:56;100105.50;;;13.25;27.83
63321;BME280;49449;48.800;9.534;2023-02-14T13:05:39;100107.53;;;13.30;27.71
63321;BME280;49449;48.800;9.534;2023-02-14T13:11:07;100093.81;;;13.39;27.50
63321;BME280;49449;48.800;9.534;2023-02-14T13:13:49;100094.44;;;13.41;27.12
63321;BME280;49449;48.800;9.534;2023-02-14T13:16:27;100096.47;;;13.46;27.47
63321;BME280;49449;48.800;9.534;2023-02-14T13:19:00;100089.31;;;13.46;27.98
63321;BME280;49449;48.800;9.534;2023-02-14T13:21:34;100082.19;;;13.40;27.20
63321;BME280;49449;48.800;9.534;2023-02-14T13:24:12;100079.94;;;13.37;27.35
63321;BME280;49449;48.800;9.534;2023-02-14T13:26:45;100075.44;;;13.38;27.48
63321;BME280;49449;48.800;9.534;2023-02-14T13:29:16;100076.06;;;13.40;27.29
63321;BME280;49449;48.800;9.534;2023-02-14T13:31:46;100067.47;;;13.44;26.90
63321;BME280;49449;48.800;9.534;2023-02-14T13:34:23;100063.41;;;13.42;27.04